sensor_id;sensor_type;location;lat;lon;timestamp;pressure;altitude;pressure_sealevel;temperature;humidity
9784;BME280;4931;44.874;-1.092;2023-01-26T00:02:11;102260.34;;;2.52;100.00
9784;BME280;4931;44.874;-1.092;2023-01-26T00:04:37;102260.81;;;2.56;100.00
9784;BME280;4931;44.874;-1.092;2023-01-26T00:07:02;102258.91;;;2.71;100.00
9784;BME280;4931;44.874;-1.092;2023-01-26T00:09:28;102238.25;;;2.70;100.00
9784;BME280;4931;44.874;-1.092;2023-01-26T00:11:53;102239.56;;;2.74;100.00
9784;BME280;4931;44.874;-1.092;2023-01-26T00:14:19;102237.97;;;2.80;100.00
9784;BME280;4931;44.874;-1.092;2023-01-26T00:16:44;102234.53;;;2.71;100.00
9784;BME280;4931;44.874;-1.092;2023-01-26T00:19:10;102233.88;;;2.69;100.00
9784;BME280;4931;44.874;-1.092;2023-01-26T00:21:36;102230.00;;;2.78;100.00
9784;BME280;4931;44.874;-1.092;2023-01-26T00:24:02;102228.97;;;2.79;100.00
9784;BME280;4931;44.874;-1.092;2023-01-26T00:26:29;102218.13;;;2.79;100.00
9784;BME280;4931;44.874;-1.092;2023-01-26T00:28:55;102207.03;;;2.74;100.00
9784;BME280;4931;44.874;-1.092;2023-01-26T00:31:23;102204.31;;;2.74;100.00
9784;BME280;4931;44.874;-1.092;2023-01-26T00:33:50;102207.69;;;2.76;100.00
9784;BME280;4931;44.874;-1.092;2023-01-26T00:36:15;102200.59;;;2.75;100.00
9784;BME280;4931;44.874;-1.092;2023-01-26T00:38:41;102193.69;;;2.73;100.00
9784;BME280;4931;44.874;-1.092;2023-01-26T00:41:08;102196.03;;;2.76;100.00
9784;BME280;4931;44.874;-1.092;2023-01-26T00:43:34;102189.34;;;2.78;100.00
9784;BME280;4931;44.874;-1.092;2023-01-26T00:45:59;102187.69;;;2.77;100.00
9784;BME280;4931;44.874;-1.092;2023-01-26T00:48:25;102200.19;;;2.78;100.00
9784;BME280;4931;44.874;-1.092;2023-01-26T00:50:51;102200.19;;;2.78;100.00
9784;BME280;4931;44.874;-1.092;2023-01-26T00:53:17;102195.69;;;2.86;100.00
9784;BME280;4931;44.874;-1.092;2023-01-26T00:55:42;102190.28;;;2.86;100.00
9784;BME280;4931;44.874;-1.092;2023-01-26T00:58:09;102197.75;;;2.83;100.00
9784;BME280;4931;44.874;-1.092;2023-01-26T01:00:36;102184.78;;;2.79;100.00
9784;BME280;4931;44.874;-1.092;2023-01-26T01:03:03;102186.00;;;2.76;100.00
9784;BME280;4931;44.874;-1.092;2023-01-26T01:05:30;102187.69;;;2.77;100.00
9784;BME280;4931;44.874;-1.092;2023-01-26T01:07:56;102192.72;;;2.80;100.00
9784;BME280;4931;44.874;-1.092;2023-01-26T01:10:23;102192.72;;;2.80;100.00
9784;BME280;4931;44.874;-1.092;2023-01-26T01:12:49;102187.75;;;2.84;100.00
9784;BME280;4931;44.874;-1.092;2023-01-26T01:15:14;102183.16;;;2.85;100.00
9784;BME280;4931;44.874;-1.092;2023-01-26T01:17:40;102197.56;;;2.85;100.00
9784;BME280;4931;44.874;-1.092;2023-01-26T01:20:07;102189.44;;;2.85;100.00
9784;BME280;4931;44.874;-1.092;2023-01-26T01:22:35;102188.59;;;2.85;100.00
9784;BME280;4931;44.874;-1.092;2023-01-26T01:25:00;102187.75;;;2.84;100.00
9784;BME280;4931;44.874;-1.092;2023-01-26T01:27:26;102184.84;;;2.86;100.00
9784;BME280;4931;44.874;-1.092;2023-01-26T01:29:52;102176.91;;;2.84;100.00
9784;BME280;4931;44.874;-1.092;2023-01-26T01:32:18;102186.91;;;2.83;100.00
9784;BME280;4931;44.874;-1.092;2023-01-26T01:34:47;102175.63;;;2.80;100.00
9784;BME280;4931;44.874;-1.092;2023-01-26T01:37:14;102162.13;;;2.65;100.00
9784;BME280;4931;44.874;-1.092;2023-01-26T01:39:40;102176.72;;;2.64;100.00
9784;BME280;4931;44.874;-1.092;2023-01-26T01:42:05;102173.22;;;2.70;100.00
9784;BME280;4931;44.874;-1.092;2023-01-26T01:44:34;102178.66;;;2.70;100.00
9784;BME280;4931;44.874;-1.092;2023-01-26T01:47:03;102180.06;;;2.66;100.00
9784;BME280;4931;44.874;-1.092;2023-01-26T01:49:35;102186.63;;;2.57;100.00
9784;BME280;4931;44.874;-1.092;2023-01-26T01:52:12;102165.53;;;2.52;100.00
9784;BME280;4931;44.874;-1.092;2023-01-26T01:54:44;102164.19;;;2.63;100.00
9784;BME280;4931;44.874;-1.092;2023-01-26T01:57:26;102155.81;;;2.58;100.00
9784;BME280;4931;44.874;-1.092;2023-01-26T02:00:14;102150.78;;;2.76;100.00
9784;BME280;4931;44.874;-1.092;2023-01-26T02:02:45;102139.56;;;2.58;100.00
9784;BME280;4931;44.874;-1.092;2023-01-26T02:05:42;102143.69;;;2.54;100.00
9784;BME280;4931;44.874;-1.092;2023-01-26T02:08:12;102148.31;;;2.60;100.00
9784;BME280;4931;44.874;-1.092;2023-01-26T02:10:39;102139.75;;;2.56;100.00
9784;BME280;4931;44.874;-1.092;2023-01-26T02:13:06;102126.00;;;2.58;100.00
9784;BME280;4931;44.874;-1.092;2023-01-26T02:15:33;102117.22;;;2.56;100.00
9784;BME280;4931;44.874;-1.092;2023-01-26T02:18:02;102125.41;;;2.62;100.00
9784;BME280;4931;44.874;-1.092;2023-01-26T02:20:45;102117.13;;;2.64;100.00
9784;BME280;4931;44.874;-1.092;2023-01-26T02:25:58;102103.31;;;2.59;100.00
9784;BME280;4931;44.874;-1.092;2023-01-26T02:28:25;102105.03;;;2.66;100.00
9784;BME280;4931;44.874;-1.092;2023-01-26T02:30:53;102104.19;;;2.66;100.00
9784;BME280;4931;44.874;-1.092;2023-01-26T02:33:26;102097.75;;;2.67;100.00
9784;BME280;4931;44.874;-1.092;2023-01-26T02:35:53;102088.41;;;2.70;100.00
9784;BME280;4931;44.874;-1.092;2023-01-26T02:38:20;102078.53;;;2.62;100.00
9784;BME280;4931;44.874;-1.092;2023-01-26T02:40:49;102083.53;;;2.65;100.00
9784;BME280;4931;44.874;-1.092;2023-01-26T02:43:16;102082.50;;;2.66;100.00
9784;BME280;4931;44.874;-1.092;2023-01-26T02:45:43;102079.56;;;2.61;100.00
9784;BME280;4931;44.874;-1.092;2023-01-26T02:48:08;102074.00;;;2.47;100.00
9784;BME280;4931;44.874;-1.092;2023-01-26T02:50:34;102071.97;;;2.49;100.00
9784;BME280;4931;44.874;-1.092;2023-01-26T02:53:01;102079.50;;;2.54;100.00
9784;BME280;4931;44.874;-1.092;2023-01-26T02:55:30;102078.31;;;2.63;100.00
9784;BME280;4931;44.874;-1.092;2023-01-26T02:58:00;102080.06;;;2.71;100.00
9784;BME280;4931;44.874;-1.092;2023-01-26T03:00:28;102071.28;;;2.69;100.00
9784;BME280;4931;44.874;-1.092;2023-01-26T03:02:56;102062.06;;;2.63;100.00
9784;BME280;4931;44.874;-1.092;2023-01-26T03:05:23;102058.13;;;2.66;100.00
9784;BME280;4931;44.874;-1.092;2023-01-26T03:07:49;102052.72;;;2.66;100.00
9784;BME280;4931;44.874;-1.092;2023-01-26T03:10:15;102054.13;;;2.62;100.00
9784;BME280;4931;44.874;-1.092;2023-01-26T03:12:41;102042.84;;;2.58;100.00
9784;BME280;4931;44.874;-1.092;2023-01-26T03:15:07;102038.09;;;2.60;100.00
9784;BME280;4931;44.874;-1.092;2023-01-26T03:17:55;102026.13;;;2.55;100.00
9784;BME280;4931;44.874;-1.092;2023-01-26T03:20:44;102038.66;;;2.56;100.00
9784;BME280;4931;44.874;-1.092;2023-01-26T03:23:28;102034.72;;;2.58;100.00
9784;BME280;4931;44.874;-1.092;2023-01-26T03:26:13;102020.13;;;2.59;100.00
9784;BME280;4931;44.874;-1.092;2023-01-26T03:28:57;102010.22;;;2.45;100.00
9784;BME280;4931;44.874;-1.092;2023-01-26T03:31:23;102021.72;;;2.47;100.00
9784;BME280;4931;44.874;-1.092;2023-01-26T03:33:48;102019.63;;;2.49;100.00
9784;BME280;4931;44.874;-1.092;2023-01-26T03:36:14;102015.69;;;2.52;100.00
9784;BME280;4931;44.874;-1.092;2023-01-26T03:38:40;102022.41;;;2.56;100.00
9784;BME280;4931;44.874;-1.092;2023-01-26T03:41:05;102026.53;;;2.52;100.00
9784;BME280;4931;44.874;-1.092;2023-01-26T03:43:55;102026.41;;;2.38;100.00
9784;BME280;4931;44.874;-1.092;2023-01-26T03:46:40;102023.50;;;2.40;100.00
9784;BME280;4931;44.874;-1.092;2023-01-26T03:49:23;102018.91;;;2.40;100.00
9784;BME280;4931;44.874;-1.092;2023-01-26T03:52:10;102015.19;;;2.41;100.00
9784;BME280;4931;44.874;-1.092;2023-01-26T03:54:55;102008.75;;;2.42;100.00
9784;BME280;4931;44.874;-1.092;2023-01-26T03:57:39;102006.03;;;2.42;100.00
9784;BME280;4931;44.874;-1.092;2023-01-26T04:00:05;101997.19;;;2.33;100.00
9784;BME280;4931;44.874;-1.092;2023-01-26T04:02:31;102000.97;;;2.32;100.00
9784;BME280;4931;44.874;-1.092;2023-01-26T04:05:15;101992.38;;;2.29;100.00
9784;BME280;4931;44.874;-1.092;2023-01-26T04:08:04;101995.09;;;2.29;100.00
9784;BME280;4931;44.874;-1.092;2023-01-26T04:10:53;101989.53;;;2.37;100.00
9784;BME280;4931;44.874;-1.092;2023-01-26T04:13:20;101992.09;;;2.45;100.00
9784;BME280;4931;44.874;-1.092;2023-01-26T04:16:06;101986.81;;;2.37;100.00
9784;BME280;4931;44.874;-1.092;2023-01-26T04:18:51;101988.09;;;2.41;100.00
9784;BME280;4931;44.874;-1.092;2023-01-26T04:21:35;101975.72;;;2.32;100.00
9784;BME280;4931;44.874;-1.092;2023-01-26T04:24:05;101977.56;;;2.25;100.00
9784;BME280;4931;44.874;-1.092;2023-01-26T04:26:39;101965.66;;;2.26;100.00
9784;BME280;4931;44.874;-1.092;2023-01-26T04:29:07;101973.03;;;2.32;100.00
9784;BME280;4931;44.874;-1.092;2023-01-26T04:31:33;101962.34;;;2.24;100.00
9784;BME280;4931;44.874;-1.092;2023-01-26T04:34:00;101963.22;;;2.31;100.00
9784;BME280;4931;44.874;-1.092;2023-01-26T04:36:26;101964.13;;;2.38;100.00
9784;BME280;4931;44.874;-1.092;2023-01-26T04:38:52;101952.28;;;2.39;100.00
9784;BME280;4931;44.874;-1.092;2023-01-26T04:41:17;101948.91;;;2.37;100.00
9784;BME280;4931;44.874;-1.092;2023-01-26T04:43:43;101943.44;;;2.30;100.00
9784;BME280;4931;44.874;-1.092;2023-01-26T04:46:09;101946.34;;;2.29;100.00
9784;BME280;4931;44.874;-1.092;2023-01-26T04:48:35;101941.56;;;2.31;100.00
9784;BME280;4931;44.874;-1.092;2023-01-26T04:51:06;101948.28;;;2.35;100.00
9784;BME280;4931;44.874;-1.092;2023-01-26T04:53:32;101937.50;;;2.42;100.00
9784;BME280;4931;44.874;-1.092;2023-01-26T04:55:58;101932.91;;;2.42;100.00
9784;BME280;4931;44.874;-1.092;2023-01-26T04:58:24;101933.16;;;2.47;100.00
9784;BME280;4931;44.874;-1.092;2023-01-26T05:00:51;101927.66;;;2.34;100.00
9784;BME280;4931;44.874;-1.092;2023-01-26T05:03:17;101933.69;;;2.36;100.00
9784;BME280;4931;44.874;-1.092;2023-01-26T05:05:43;101929.31;;;2.35;100.00
9784;BME280;4931;44.874;-1.092;2023-01-26T05:08:09;101916.34;;;2.30;100.00
9784;BME280;4931;44.874;-1.092;2023-01-26T05:10:35;101910.50;;;2.27;100.00
9784;BME280;4931;44.874;-1.092;2023-01-26T05:13:00;101916.34;;;2.30;100.00
9784;BME280;4931;44.874;-1.092;2023-01-26T05:15:26;101907.53;;;2.22;100.00
9784;BME280;4931;44.874;-1.092;2023-01-26T05:17:52;101903.03;;;2.29;100.00
9784;BME280;4931;44.874;-1.092;2023-01-26T05:20:17;101913.91;;;2.36;100.00
9784;BME280;4931;44.874;-1.092;2023-01-26T05:22:43;101911.88;;;2.44;100.00
9784;BME280;4931;44.874;-1.092;2023-01-26T05:25:09;101908.31;;;2.44;100.00
9784;BME280;4931;44.874;-1.092;2023-01-26T05:27:35;101908.94;;;2.39;100.00
9784;BME280;4931;44.874;-1.092;2023-01-26T05:30:01;101906.03;;;2.41;100.00
9784;BME280;4931;44.874;-1.092;2023-01-26T05:32:28;101899.38;;;2.43;100.00
9784;BME280;4931;44.874;-1.092;2023-01-26T05:34:54;101899.13;;;2.38;100.00
9784;BME280;4931;44.874;-1.092;2023-01-26T05:37:20;101900.56;;;2.34;100.00
9784;BME280;4931;44.874;-1.092;2023-01-26T05:39:45;101901.59;;;2.33;100.00
9784;BME280;4931;44.874;-1.092;2023-01-26T05:42:11;101900.97;;;2.38;100.00
9784;BME280;4931;44.874;-1.092;2023-01-26T05:44:37;101901.84;;;2.38;100.00
9784;BME280;4931;44.874;-1.092;2023-01-26T05:47:03;101891.41;;;2.35;100.00
9784;BME280;4931;44.874;-1.092;2023-01-26T05:49:29;101891.78;;;2.32;100.00
9784;BME280;4931;44.874;-1.092;2023-01-26T05:51:54;101889.72;;;2.34;100.00
9784;BME280;4931;44.874;-1.092;2023-01-26T05:54:20;101887.28;;;2.39;100.00
9784;BME280;4931;44.874;-1.092;2023-01-26T05:56:45;101884.31;;;2.34;100.00
9784;BME280;4931;44.874;-1.092;2023-01-26T05:59:11;101880.94;;;2.32;100.00
9784;BME280;4931;44.874;-1.092;2023-01-26T06:01:37;101883.63;;;2.25;100.00
9784;BME280;4931;44.874;-1.092;2023-01-26T06:04:03;101885.75;;;2.30;100.00
9784;BME280;4931;44.874;-1.092;2023-01-26T06:06:32;101896.16;;;2.33;100.00
9784;BME280;4931;44.874;-1.092;2023-01-26T06:08:58;101893.25;;;2.35;100.00
9784;BME280;4931;44.874;-1.092;2023-01-26T06:11:24;101895.50;;;2.31;100.00
9784;BME280;4931;44.874;-1.092;2023-01-26T06:13:49;101892.19;;;2.29;100.00
9784;BME280;4931;44.874;-1.092;2023-01-26T06:16:15;101881.50;;;2.21;100.00
9784;BME280;4931;44.874;-1.092;2023-01-26T06:18:40;101889.19;;;2.17;100.00
9784;BME280;4931;44.874;-1.092;2023-01-26T06:21:06;101881.44;;;2.14;100.00
9784;BME280;4931;44.874;-1.092;2023-01-26T06:23:35;101889.63;;;2.21;100.00
9784;BME280;4931;44.874;-1.092;2023-01-26T06:26:11;101884.63;;;2.24;100.00
9784;BME280;4931;44.874;-1.092;2023-01-26T06:28:43;101890.47;;;2.21;100.00
9784;BME280;4931;44.874;-1.092;2023-01-26T06:31:09;101883.81;;;2.24;100.00
9784;BME280;4931;44.874;-1.092;2023-01-26T06:33:36;101889.22;;;2.24;100.00
9784;BME280;4931;44.874;-1.092;2023-01-26T06:36:03;101877.75;;;2.22;100.00
9784;BME280;4931;44.874;-1.092;2023-01-26T06:38:29;101879.84;;;2.20;100.00
9784;BME280;4931;44.874;-1.092;2023-01-26T06:40:59;101877.25;;;2.11;100.00
9784;BME280;4931;44.874;-1.092;2023-01-26T06:43:28;101874.53;;;2.11;100.00
9784;BME280;4931;44.874;-1.092;2023-01-26T06:45:58;101875.41;;;2.12;100.00
9784;BME280;4931;44.874;-1.092;2023-01-26T06:48:24;101876.22;;;2.12;100.00
9784;BME280;4931;44.874;-1.092;2023-01-26T06:50:51;101872.88;;;2.10;100.00
9784;BME280;4931;44.874;-1.092;2023-01-26T06:53:46;101872.63;;;2.05;100.00
9784;BME280;4931;44.874;-1.092;2023-01-26T06:56:12;101868.25;;;2.04;100.00
9784;BME280;4931;44.874;-1.092;2023-01-26T06:58:38;101865.34;;;2.06;100.00
9784;BME280;4931;44.874;-1.092;2023-01-26T07:01:04;101865.03;;;2.15;100.00
9784;BME280;4931;44.874;-1.092;2023-01-26T07:03:30;101867.13;;;2.20;100.00
9784;BME280;4931;44.874;-1.092;2023-01-26T07:05:56;101870.47;;;2.22;100.00
9784;BME280;4931;44.874;-1.092;2023-01-26T07:08:22;101858.78;;;2.22;100.00
9784;BME280;4931;44.874;-1.092;2023-01-26T07:10:50;101860.47;;;2.23;100.00
9784;BME280;4931;44.874;-1.092;2023-01-26T07:13:20;101851.31;;;2.24;100.00
9784;BME280;4931;44.874;-1.092;2023-01-26T07:15:46;101855.47;;;2.20;100.00
9784;BME280;4931;44.874;-1.092;2023-01-26T07:18:11;101855.25;;;2.21;100.00
9784;BME280;4931;44.874;-1.092;2023-01-26T07:20:37;101848.28;;;2.05;100.00
9784;BME280;4931;44.874;-1.092;2023-01-26T07:23:02;101845.41;;;2.13;100.00
9784;BME280;4931;44.874;-1.092;2023-01-26T07:25:28;101854.91;;;2.03;100.00
9784;BME280;4931;44.874;-1.092;2023-01-26T07:28:00;101842.88;;;2.05;100.00
9784;BME280;4931;44.874;-1.092;2023-01-26T07:30:26;101852.31;;;2.16;100.00
9784;BME280;4931;44.874;-1.092;2023-01-26T07:32:52;101837.94;;;2.15;100.00
9784;BME280;4931;44.874;-1.092;2023-01-26T07:35:17;101837.94;;;2.15;100.00
9784;BME280;4931;44.874;-1.092;2023-01-26T07:37:43;101844.59;;;2.13;100.00
9784;BME280;4931;44.874;-1.092;2023-01-26T07:40:09;101842.50;;;2.15;100.00
9784;BME280;4931;44.874;-1.092;2023-01-26T07:42:35;101834.59;;;2.13;100.00
9784;BME280;4931;44.874;-1.092;2023-01-26T07:45:03;101837.94;;;2.15;100.00
9784;BME280;4931;44.874;-1.092;2023-01-26T07:47:29;101822.06;;;2.12;100.00
9784;BME280;4931;44.874;-1.092;2023-01-26T07:49:55;101825.44;;;2.14;100.00
9784;BME280;4931;44.874;-1.092;2023-01-26T07:52:20;101837.03;;;2.08;100.00
9784;BME280;4931;44.874;-1.092;2023-01-26T07:54:46;101841.97;;;1.98;100.00
9784;BME280;4931;44.874;-1.092;2023-01-26T07:57:15;101841.09;;;1.91;100.00
9784;BME280;4931;44.874;-1.092;2023-01-26T07:59:47;101844.81;;;1.90;100.00
9784;BME280;4931;44.874;-1.092;2023-01-26T08:02:16;101843.53;;;1.86;100.00
9784;BME280;4931;44.874;-1.092;2023-01-26T08:04:48;101823.56;;;1.87;100.00
9784;BME280;4931;44.874;-1.092;2023-01-26T08:07:14;101839.03;;;1.99;100.00
9784;BME280;4931;44.874;-1.092;2023-01-26T08:09:42;101843.63;;;1.99;100.00
9784;BME280;4931;44.874;-1.092;2023-01-26T08:12:08;101838.03;;;2.01;100.00
9784;BME280;4931;44.874;-1.092;2023-01-26T08:14:37;101836.53;;;1.98;100.00
9784;BME280;4931;44.874;-1.092;2023-01-26T08:17:09;101823.41;;;1.95;100.00
9784;BME280;4931;44.874;-1.092;2023-01-26T08:19:41;101850.56;;;2.08;100.00
9784;BME280;4931;44.874;-1.092;2023-01-26T08:22:18;101849.75;;;2.08;100.00
9784;BME280;4931;44.874;-1.092;2023-01-26T08:24:54;101850.72;;;2.00;100.00
9784;BME280;4931;44.874;-1.092;2023-01-26T08:27:29;101844.97;;;1.81;100.00
9784;BME280;4931;44.874;-1.092;2023-01-26T08:30:01;101827.19;;;1.72;100.00
9784;BME280;4931;44.874;-1.092;2023-01-26T08:32:35;101843.47;;;1.79;100.00
9784;BME280;4931;44.874;-1.092;2023-01-26T08:35:04;101842.88;;;1.83;100.00
9784;BME280;4931;44.874;-1.092;2023-01-26T08:37:30;101847.22;;;1.78;100.00
9784;BME280;4931;44.874;-1.092;2023-01-26T08:39:55;101850.22;;;1.68;100.00
9784;BME280;4931;44.874;-1.092;2023-01-26T08:42:21;101857.50;;;1.68;100.00
9784;BME280;4931;44.874;-1.092;2023-01-26T08:44:47;101861.44;;;1.65;100.00
9784;BME280;4931;44.874;-1.092;2023-01-26T08:47:13;101846.63;;;1.61;100.00
9784;BME280;4931;44.874;-1.092;2023-01-26T08:49:38;101859.34;;;1.60;100.00
9784;BME280;4931;44.874;-1.092;2023-01-26T08:52:04;101858.34;;;1.68;100.00
9784;BME280;4931;44.874;-1.092;2023-01-26T08:54:30;101845.06;;;1.73;100.00
9784;BME280;4931;44.874;-1.092;2023-01-26T08:56:58;101859.25;;;1.75;100.00
9784;BME280;4931;44.874;-1.092;2023-01-26T08:59:24;101853.59;;;1.70;100.00
9784;BME280;4931;44.874;-1.092;2023-01-26T09:01:52;101853.84;;;1.54;100.00
9784;BME280;4931;44.874;-1.092;2023-01-26T09:04:20;101873.81;;;1.74;100.00
9784;BME280;4931;44.874;-1.092;2023-01-26T09:06:48;101851.22;;;1.60;100.00
9784;BME280;4931;44.874;-1.092;2023-01-26T09:09:14;101863.06;;;1.59;100.00
9784;BME280;4931;44.874;-1.092;2023-01-26T09:11:40;101870.06;;;1.54;100.00
9784;BME280;4931;44.874;-1.092;2023-01-26T09:14:05;101870.47;;;1.51;100.00
9784;BME280;4931;44.874;-1.092;2023-01-26T09:16:31;101869.81;;;1.48;100.00
9784;BME280;4931;44.874;-1.092;2023-01-26T09:18:57;101884.97;;;1.64;100.00
9784;BME280;4931;44.874;-1.092;2023-01-26T09:21:28;101881.31;;;1.72;100.00
9784;BME280;4931;44.874;-1.092;2023-01-26T09:23:55;101881.78;;;1.82;100.00
9784;BME280;4931;44.874;-1.092;2023-01-26T09:26:21;101880.91;;;1.75;100.00
9784;BME280;4931;44.874;-1.092;2023-01-26T09:28:53;101883.88;;;1.80;100.00
9784;BME280;4931;44.874;-1.092;2023-01-26T09:31:19;101890.56;;;1.85;100.00
9784;BME280;4931;44.874;-1.092;2023-01-26T09:33:45;101887.19;;;1.82;100.00
9784;BME280;4931;44.874;-1.092;2023-01-26T09:36:11;101901.38;;;1.85;100.00
9784;BME280;4931;44.874;-1.092;2023-01-26T09:38:40;101914.19;;;1.76;100.00
9784;BME280;4931;44.874;-1.092;2023-01-26T09:43:46;101921.09;;;1.57;100.00
9784;BME280;4931;44.874;-1.092;2023-01-26T09:46:21;101916.31;;;1.59;100.00
9784;BME280;4931;44.874;-1.092;2023-01-26T09:52:11;101907.81;;;1.62;100.00
9784;BME280;4931;44.874;-1.092;2023-01-26T09:54:45;101913.72;;;1.29;100.00
9784;BME280;4931;44.874;-1.092;2023-01-26T09:57:15;101905.94;;;1.26;100.00
9784;BME280;4931;44.874;-1.092;2023-01-26T09:59:49;101901.59;;;1.25;100.00
9784;BME280;4931;44.874;-1.092;2023-01-26T10:05:13;101912.03;;;1.28;100.00
9784;BME280;4931;44.874;-1.092;2023-01-26T10:07:42;101910.59;;;1.32;100.00
9784;BME280;4931;44.874;-1.092;2023-01-26T10:10:16;101908.81;;;1.39;100.00
9784;BME280;4931;44.874;-1.092;2023-01-26T10:12:46;101914.75;;;1.49;100.00
9784;BME280;4931;44.874;-1.092;2023-01-26T10:15:29;101919.00;;;1.59;100.00
9784;BME280;4931;44.874;-1.092;2023-01-26T10:18:06;101922.78;;;1.58;100.00
9784;BME280;4931;44.874;-1.092;2023-01-26T10:20:48;101924.06;;;1.62;100.00
9784;BME280;4931;44.874;-1.092;2023-01-26T10:23:35;101934.09;;;1.68;100.00
9784;BME280;4931;44.874;-1.092;2023-01-26T10:26:19;101941.19;;;1.69;100.00
9784;BME280;4931;44.874;-1.092;2023-01-26T10:28:50;101942.22;;;1.68;100.00
9784;BME280;4931;44.874;-1.092;2023-01-26T10:31:31;101935.25;;;1.59;100.00
9784;BME280;4931;44.874;-1.092;2023-01-26T10:34:01;101950.97;;;1.48;100.00
9784;BME280;4931;44.874;-1.092;2023-01-26T10:36:33;101936.94;;;1.60;100.00
9784;BME280;4931;44.874;-1.092;2023-01-26T10:39:07;101944.84;;;1.61;100.00
9784;BME280;4931;44.874;-1.092;2023-01-26T10:41:33;101942.47;;;1.52;100.00
9784;BME280;4931;44.874;-1.092;2023-01-26T10:46:42;101937.16;;;1.43;100.00
9784;BME280;4931;44.874;-1.092;2023-01-26T10:51:35;101945.09;;;1.45;100.00
9784;BME280;4931;44.874;-1.092;2023-01-26T10:54:26;101948.00;;;1.43;100.00
9784;BME280;4931;44.874;-1.092;2023-01-26T10:56:54;101942.38;;;1.45;100.00
9784;BME280;4931;44.874;-1.092;2023-01-26T10:59:31;101941.25;;;1.39;100.00
9784;BME280;4931;44.874;-1.092;2023-01-26T11:02:01;101944.91;;;1.46;100.00
9784;BME280;4931;44.874;-1.092;2023-01-26T11:04:28;101944.63;;;1.41;100.00
9784;BME280;4931;44.874;-1.092;2023-01-26T11:06:54;101940.63;;;1.37;100.00
9784;BME280;4931;44.874;-1.092;2023-01-26T11:09:27;101941.25;;;1.39;100.00
9784;BME280;4931;44.874;-1.092;2023-01-26T11:12:01;101953.22;;;1.30;100.00
9784;BME280;4931;44.874;-1.092;2023-01-26T11:14:28;101962.53;;;1.42;100.00
9784;BME280;4931;44.874;-1.092;2023-01-26T11:17:08;101953.94;;;1.39;100.00
9784;BME280;4931;44.874;-1.092;2023-01-26T11:22:54;101950.97;;;1.48;100.00
9784;BME280;4931;44.874;-1.092;2023-01-26T11:25:25;101953.75;;;1.40;100.00
9784;BME280;4931;44.874;-1.092;2023-01-26T11:31:14;101944.47;;;1.13;100.00
9784;BME280;4931;44.874;-1.092;2023-01-26T11:36:59;101947.63;;;1.16;100.00
9784;BME280;4931;44.874;-1.092;2023-01-26T11:39:36;101930.22;;;1.04;100.00
9784;BME280;4931;44.874;-1.092;2023-01-26T11:42:31;101942.22;;;1.16;100.00
9784;BME280;4931;44.874;-1.092;2023-01-26T11:50:33;101959.22;;;1.10;100.00
9784;BME280;4931;44.874;-1.092;2023-01-26T11:58:38;101955.19;;;1.21;100.00
9784;BME280;4931;44.874;-1.092;2023-01-26T12:01:17;101944.47;;;1.28;100.00
9784;BME280;4931;44.874;-1.092;2023-01-26T12:03:55;101946.84;;;1.38;100.00
9784;BME280;4931;44.874;-1.092;2023-01-26T12:06:33;101957.97;;;1.28;100.00
9784;BME280;4931;44.874;-1.092;2023-01-26T12:09:14;101956.69;;;1.09;100.00
9784;BME280;4931;44.874;-1.092;2023-01-26T12:12:58;101943.75;;;1.04;100.00
9784;BME280;4931;44.874;-1.092;2023-01-26T12:15:18;101945.31;;;0.98;100.00
9784;BME280;4931;44.874;-1.092;2023-01-26T12:20:40;101935.41;;;1.36;100.00
9784;BME280;4931;44.874;-1.092;2023-01-26T12:23:14;101940.22;;;1.40;100.00
9784;BME280;4931;44.874;-1.092;2023-01-26T12:28:28;101930.97;;;1.49;100.00
9784;BME280;4931;44.874;-1.092;2023-01-26T12:33:44;101922.56;;;1.59;100.00
9784;BME280;4931;44.874;-1.092;2023-01-26T12:39:18;101923.44;;;1.81;100.00
9784;BME280;4931;44.874;-1.092;2023-01-26T12:44:42;101920.56;;;1.68;100.00
9784;BME280;4931;44.874;-1.092;2023-01-26T12:47:17;101897.13;;;1.75;100.00
9784;BME280;4931;44.874;-1.092;2023-01-26T12:50:23;101903.56;;;1.74;100.00
9784;BME280;4931;44.874;-1.092;2023-01-26T12:55:35;101886.13;;;1.98;100.00
9784;BME280;4931;44.874;-1.092;2023-01-26T12:58:11;101870.69;;;1.99;100.00
9784;BME280;4931;44.874;-1.092;2023-01-26T13:00:38;101876.81;;;2.36;100.00
9784;BME280;4931;44.874;-1.092;2023-01-26T13:03:14;101879.69;;;2.28;100.00
9784;BME280;4931;44.874;-1.092;2023-01-26T13:10:54;101878.97;;;2.47;100.00
9784;BME280;4931;44.874;-1.092;2023-01-26T13:18:48;101892.44;;;2.34;100.00
9784;BME280;4931;44.874;-1.092;2023-01-26T13:26:56;101890.88;;;2.18;100.00
9784;BME280;4931;44.874;-1.092;2023-01-26T13:29:25;101882.13;;;2.23;100.00
9784;BME280;4931;44.874;-1.092;2023-01-26T13:31:54;101882.19;;;2.29;100.00
9784;BME280;4931;44.874;-1.092;2023-01-26T13:34:28;101883.91;;;2.37;100.00
9784;BME280;4931;44.874;-1.092;2023-01-26T13:37:04;101881.00;;;2.39;100.00
9784;BME280;4931;44.874;-1.092;2023-01-26T13:39:37;101871.34;;;2.29;100.00
9784;BME280;4931;44.874;-1.092;2023-01-26T13:42:19;101861.00;;;2.11;100.00
9784;BME280;4931;44.874;-1.092;2023-01-26T13:44:55;101862.56;;;2.21;100.00
9784;BME280;4931;44.874;-1.092;2023-01-26T13:47:27;101868.84;;;2.28;100.00
9784;BME280;4931;44.874;-1.092;2023-01-26T13:49:55;101862.00;;;2.32;100.00
9784;BME280;4931;44.874;-1.092;2023-01-26T13:52:25;101859.69;;;2.29;100.00
9784;BME280;4931;44.874;-1.092;2023-01-26T13:54:52;101861.28;;;2.23;100.00
9784;BME280;4931;44.874;-1.092;2023-01-26T13:57:22;101855.47;;;2.20;100.00
9784;BME280;4931;44.874;-1.092;2023-01-26T13:59:53;101858.78;;;2.22;100.00
9784;BME280;4931;44.874;-1.092;2023-01-26T14:02:33;101840.91;;;2.21;100.00
9784;BME280;4931;44.874;-1.092;2023-01-26T14:04:59;101854.22;;;2.22;100.00
9784;BME280;4931;44.874;-1.092;2023-01-26T14:07:43;101843.03;;;2.32;100.00
9784;BME280;4931;44.874;-1.092;2023-01-26T14:10:19;101843.34;;;2.51;100.00
9784;BME280;4931;44.874;-1.092;2023-01-26T14:12:48;101854.66;;;2.61;100.00
9784;BME280;4931;44.874;-1.092;2023-01-26T14:15:23;101856.22;;;2.77;100.00
9784;BME280;4931;44.874;-1.092;2023-01-26T14:17:51;101852.06;;;2.81;100.00
9784;BME280;4931;44.874;-1.092;2023-01-26T14:23:17;101848.66;;;2.65;100.00
9784;BME280;4931;44.874;-1.092;2023-01-26T14:25:58;101842.91;;;2.82;100.00
9784;BME280;4931;44.874;-1.092;2023-01-26T14:28:34;101835.44;;;2.91;100.00
9784;BME280;4931;44.874;-1.092;2023-01-26T14:31:09;101846.31;;;2.97;100.00